createdAt,value
2018-11-07T00:00:38.142Z,25.90
2018-11-07T00:03:20.270Z,25.23
2018-11-07T00:06:02.551Z,24.67
2018-11-07T00:08:44.508Z,24.35
2018-11-07T00:11:26.241Z,25.63
2018-11-07T00:14:08.458Z,24.85
2018-11-07T00:16:50.348Z,23.77
2018-11-07T00:19:32.581Z,26.13
2018-11-07T00:22:14.812Z,26.15
2018-11-07T00:24:56.279Z,25.07
2018-11-07T00:27:38.398Z,25.60
2018-11-07T00:30:20.487Z,25.07
2018-11-07T00:33:02.394Z,25.80
2018-11-07T00:35:44.383Z,25.30
2018-11-07T00:38:27.568Z,25.30
2018-11-07T00:41:09.579Z,25.25
2018-11-07T00:43:50.969Z,25.53
2018-11-07T00:46:32.727Z,26.40
2018-11-07T00:49:14.949Z,25.63
2018-11-07T00:51:57.272Z,25.40
2018-11-07T00:54:39.425Z,26.90
2018-11-07T00:57:21.402Z,26.62
2018-11-07T01:00:04.622Z,25.97
2018-11-07T01:02:46.925Z,28.40
2018-11-07T01:05:28.952Z,27.25
2018-11-07T01:08:11.108Z,27.98
2018-11-07T01:10:53.254Z,27.13
2018-11-07T01:13:35.365Z,27.75
2018-11-07T01:16:17.711Z,27.58
2018-11-07T01:19:00.154Z,27.62
2018-11-07T01:21:42.160Z,28.05
2018-11-07T01:24:24.672Z,27.75
2018-11-07T01:27:06.803Z,28.80
2018-11-07T01:29:48.659Z,27.90
2018-11-07T01:32:30.567Z,29.42
2018-11-07T01:35:12.667Z,28.00
2018-11-07T01:37:55.077Z,28.80
2018-11-07T01:40:37.210Z,28.95
2018-11-07T01:43:20.316Z,28.67
2018-11-07T01:46:02.630Z,29.07
2018-11-07T01:48:44.675Z,29.77
2018-11-07T01:51:26.836Z,29.92
2018-11-07T01:54:09.052Z,29.80
2018-11-07T01:56:51.280Z,30.77
2018-11-07T01:59:33.400Z,30.43
2018-11-07T02:02:15.431Z,30.55
2018-11-07T02:04:57.752Z,30.85
2018-11-07T02:07:40.427Z,30.43
2018-11-07T02:10:22.346Z,31.45
2018-11-07T02:13:04.293Z,31.17
2018-11-07T02:15:46.403Z,30.72
2018-11-07T02:18:28.514Z,31.23
2018-11-07T02:21:10.344Z,32.42
2018-11-07T02:23:52.352Z,31.80
2018-11-07T02:26:34.978Z,31.57
2018-11-07T02:29:17.418Z,32.98
2018-11-07T02:31:59.543Z,30.57
2018-11-07T02:34:42.218Z,31.27
2018-11-07T02:37:24.048Z,31.97
2018-11-07T02:40:06.376Z,31.00
2018-11-07T02:42:48.348Z,32.85
2018-11-07T02:45:30.076Z,31.73
2018-11-07T02:48:12.133Z,32.38
2018-11-07T02:50:54.030Z,32.75
2018-11-07T02:53:36.243Z,32.15
2018-11-07T02:56:18.078Z,34.53
2018-11-07T02:58:59.902Z,33.95
2018-11-07T03:01:42.073Z,33.33
2018-11-07T03:04:23.800Z,32.10
2018-11-07T03:07:06.129Z,32.38
2018-11-07T03:09:47.767Z,33.90
2018-11-07T03:12:29.380Z,33.90
2018-11-07T03:15:11.237Z,32.48
2018-11-07T03:17:53.038Z,34.23
2018-11-07T03:20:35.189Z,34.98
2018-11-07T03:23:16.873Z,34.45
2018-11-07T03:25:59.243Z,32.15
2018-11-07T03:28:40.973Z,34.48
2018-11-07T03:31:22.647Z,33.20
2018-11-07T03:34:04.793Z,34.70
2018-11-07T03:36:46.931Z,35.00
2018-11-07T03:39:28.674Z,34.03
2018-11-07T03:42:10.985Z,33.90
2018-11-07T03:44:53.135Z,35.33
2018-11-07T03:47:35.612Z,35.50
2018-11-07T03:50:17.445Z,34.35
2018-11-07T03:52:59.430Z,34.67
2018-11-07T03:55:43.096Z,36.20
2018-11-07T03:58:24.741Z,34.48
2018-11-07T04:01:07.000Z,35.52
2018-11-07T04:03:49.029Z,35.45
2018-11-07T04:06:31.169Z,34.58
2018-11-07T04:09:14.332Z,33.50
2018-11-07T04:11:56.458Z,34.00
2018-11-07T04:14:38.828Z,34.88
2018-11-07T04:17:20.305Z,37.38
2018-11-07T04:20:02.650Z,39.35
2018-11-07T04:22:44.516Z,37.23
2018-11-07T04:25:26.580Z,38.13
2018-11-07T04:28:09.046Z,37.85
2018-11-07T04:30:50.722Z,37.93
2018-11-07T04:33:32.373Z,37.48
2018-11-07T04:36:14.543Z,39.70
2018-11-07T04:38:56.652Z,36.98
2018-11-07T04:41:38.982Z,37.53
2018-11-07T04:44:21.033Z,37.25
2018-11-07T04:47:02.870Z,37.45
2018-11-07T04:49:44.536Z,38.45
2018-11-07T04:52:25.890Z,37.13
2018-11-07T04:55:07.300Z,36.95
2018-11-07T04:57:49.244Z,36.75
2018-11-07T05:00:31.345Z,38.58
2018-11-07T05:03:12.991Z,36.70
2018-11-07T05:05:55.157Z,38.83
2018-11-07T05:08:37.308Z,38.53
2018-11-07T05:11:19.255Z,36.40
2018-11-07T05:14:01.376Z,37.05
2018-11-07T05:16:43.879Z,36.70
2018-11-07T05:19:26.212Z,37.70
2018-11-07T05:22:08.733Z,35.30
2018-11-07T05:24:50.862Z,39.53
2018-11-07T05:27:33.034Z,39.33
2018-11-07T05:30:15.097Z,41.28
2018-11-07T05:32:57.186Z,41.05
2018-11-07T05:35:38.849Z,40.12
2018-11-07T05:38:21.080Z,41.88
2018-11-07T05:41:03.179Z,39.70
2018-11-07T05:43:45.461Z,39.42
2018-11-07T05:46:27.304Z,42.30
2018-11-07T05:49:09.705Z,38.20
2018-11-07T05:51:51.830Z,39.38
2018-11-07T05:54:34.077Z,39.90
2018-11-07T05:57:16.245Z,38.92
2018-11-07T05:59:58.224Z,40.43
2018-11-07T06:02:41.080Z,38.98
2018-11-07T06:05:23.225Z,39.30
2018-11-07T06:08:05.790Z,38.73
2018-11-07T06:10:47.821Z,41.02
2018-11-07T06:13:29.480Z,39.85
2018-11-07T06:16:11.519Z,39.65
2018-11-07T06:18:53.538Z,39.20
2018-11-07T06:21:36.087Z,39.70
2018-11-07T06:24:18.739Z,39.65
2018-11-07T06:27:01.439Z,41.65
2018-11-07T06:29:43.275Z,41.92
2018-11-07T06:32:24.932Z,42.98
2018-11-07T06:35:08.740Z,40.23
2018-11-07T06:37:51.332Z,40.73
2018-11-07T06:40:33.491Z,40.40
2018-11-07T06:43:15.960Z,39.65
2018-11-07T06:45:57.805Z,39.92
2018-11-07T06:48:39.608Z,37.40
2018-11-07T06:51:21.605Z,37.42
2018-11-07T06:54:03.693Z,38.80
2018-11-07T06:56:45.997Z,39.38
2018-11-07T06:59:27.887Z,36.23
2018-11-07T07:02:09.602Z,37.83
2018-11-07T07:04:51.769Z,44.88
2018-11-07T07:07:34.090Z,41.88
2018-11-07T07:10:17.690Z,45.52
2018-11-07T07:13:00.085Z,42.43
2018-11-07T07:15:41.948Z,42.23
2018-11-07T07:18:24.070Z,41.92
2018-11-07T07:21:06.417Z,43.30
2018-11-07T07:23:49.152Z,41.08
2018-11-07T07:26:30.946Z,39.63
2018-11-07T07:29:12.964Z,40.85
2018-11-07T07:31:54.925Z,41.37
2018-11-07T07:34:36.812Z,40.80
2018-11-07T07:37:18.622Z,40.03
2018-11-07T07:40:00.716Z,37.85
2018-11-07T07:42:43.665Z,38.30
2018-11-07T07:45:25.789Z,37.35
2018-11-07T07:48:08.752Z,37.00
2018-11-07T07:50:50.930Z,36.73
2018-11-07T07:53:32.857Z,36.77
2018-11-07T07:56:14.723Z,32.07
2018-11-07T07:58:56.278Z,31.00
2018-11-07T08:01:38.347Z,30.83
2018-11-07T08:04:20.333Z,29.33
2018-11-07T08:07:02.112Z,29.03
2018-11-07T08:09:43.646Z,29.47
2018-11-07T08:12:25.605Z,28.93
2018-11-07T08:15:07.532Z,29.90
2018-11-07T08:17:49.612Z,29.47
2018-11-07T08:20:31.199Z,29.10
2018-11-07T08:23:12.990Z,28.23
2018-11-07T08:25:54.549Z,28.07
2018-11-07T08:28:36.077Z,28.20
2018-11-07T08:31:17.967Z,28.80
2018-11-07T08:33:59.953Z,28.30
2018-11-07T08:36:42.005Z,29.67
2018-11-07T08:39:23.424Z,28.77
2018-11-07T08:42:05.740Z,28.57
2018-11-07T08:44:47.294Z,29.60
2018-11-07T08:47:28.860Z,28.97
2018-11-07T08:50:13.300Z,28.83
2018-11-07T08:52:55.743Z,28.73
2018-11-07T08:55:38.607Z,27.90
2018-11-07T08:58:20.504Z,29.60
2018-11-07T09:01:01.710Z,29.10
2018-11-07T09:03:43.173Z,28.37
2018-11-07T09:06:25.120Z,27.67
2018-11-07T09:09:11.108Z,30.03
2018-11-07T09:11:52.964Z,28.63
2018-11-07T09:14:34.845Z,27.97
2018-11-07T09:17:17.012Z,29.63
2018-11-07T09:19:58.524Z,28.53
2018-11-07T09:22:40.886Z,28.97
2018-11-07T09:25:24.102Z,28.50
2018-11-07T09:28:05.769Z,28.37
2018-11-07T09:30:48.371Z,28.00
2018-11-07T09:33:31.053Z,29.00
2018-11-07T09:36:13.102Z,27.03
2018-11-07T09:38:55.606Z,26.80
2018-11-07T09:41:37.793Z,26.77
2018-11-07T09:44:20.974Z,26.80
2018-11-07T09:47:04.632Z,27.30
2018-11-07T09:49:50.002Z,28.20
2018-11-07T09:52:32.088Z,27.43
2018-11-07T09:55:15.511Z,25.97
2018-11-07T09:57:57.423Z,27.73
2018-11-07T10:00:39.625Z,27.93
2018-11-07T10:03:21.034Z,27.70
2018-11-07T10:06:02.800Z,26.77
2018-11-07T10:08:44.957Z,24.83
2018-11-07T10:11:27.056Z,26.90
2018-11-07T10:14:09.457Z,28.43
2018-11-07T10:16:51.325Z,28.23
2018-11-07T10:19:33.017Z,28.13
2018-11-07T10:22:14.706Z,28.30
2018-11-07T10:24:56.015Z,28.17
2018-11-07T10:27:37.584Z,28.30
2018-11-07T10:30:20.144Z,28.00
2018-11-07T10:33:01.899Z,27.87
2018-11-07T10:35:43.811Z,27.50
2018-11-07T10:38:25.762Z,26.73
2018-11-07T10:41:07.813Z,27.70
2018-11-07T10:43:49.809Z,27.97
2018-11-07T10:46:31.724Z,28.40
2018-11-07T10:49:13.849Z,26.47
2018-11-07T10:51:55.470Z,27.20
2018-11-07T10:54:37.446Z,27.73
2018-11-07T10:57:19.226Z,27.53
2018-11-07T11:00:00.968Z,27.10
2018-11-07T11:02:46.530Z,26.63
2018-11-07T11:05:27.919Z,25.43
2018-11-07T11:08:09.652Z,26.27
2018-11-07T11:10:51.850Z,27.60
2018-11-07T11:13:33.646Z,26.60
2018-11-07T11:16:15.408Z,26.27
2018-11-07T11:18:57.353Z,26.67
2018-11-07T11:21:39.084Z,26.83
2018-11-07T11:24:20.427Z,26.83
2018-11-07T11:27:02.104Z,26.53
2018-11-07T11:29:43.830Z,26.23
2018-11-07T11:32:25.509Z,25.77
2018-11-07T11:35:09.303Z,24.63
2018-11-07T11:37:51.633Z,26.23
2018-11-07T11:40:33.085Z,26.03
2018-11-07T11:43:15.699Z,25.70
2018-11-07T11:45:57.725Z,26.57
2018-11-07T11:48:39.640Z,25.97
2018-11-07T11:51:21.143Z,25.77
2018-11-07T11:54:03.179Z,26.00
2018-11-07T11:56:46.456Z,28.30
2018-11-07T11:59:28.271Z,26.33
2018-11-07T12:02:10.161Z,27.40
2018-11-07T12:04:51.657Z,26.67
2018-11-07T12:07:33.507Z,25.77
2018-11-07T12:10:20.320Z,25.93
2018-11-07T12:13:02.133Z,26.07
2018-11-07T12:15:44.925Z,26.70
2018-11-07T12:18:26.887Z,26.50
2018-11-07T12:21:08.562Z,26.30
2018-11-07T12:23:50.979Z,26.10
2018-11-07T12:26:33.027Z,25.87
2018-11-07T12:29:14.418Z,25.20
2018-11-07T12:31:56.169Z,25.23
2018-11-07T12:34:38.741Z,27.77
2018-11-07T12:37:21.114Z,24.17
2018-11-07T12:40:02.877Z,26.07
2018-11-07T12:42:44.622Z,24.17
2018-11-07T12:45:26.790Z,24.57
2018-11-07T12:48:09.084Z,22.57
2018-11-07T12:50:50.502Z,22.90
2018-11-07T12:53:32.393Z,23.33
2018-11-07T12:56:14.592Z,24.00
2018-11-07T12:58:56.359Z,21.83
2018-11-07T13:01:37.768Z,19.87
2018-11-07T13:04:19.497Z,21.87
2018-11-07T13:07:01.565Z,21.40
2018-11-07T13:09:42.970Z,19.50
2018-11-07T13:12:24.849Z,20.40
2018-11-07T13:15:07.658Z,18.83
2018-11-07T13:17:50.330Z,21.30
2018-11-07T13:20:32.392Z,18.60
2018-11-07T13:23:13.834Z,19.07
2018-11-07T13:25:55.547Z,19.53
2018-11-07T13:28:37.175Z,20.73
2018-11-07T13:31:19.173Z,20.97
2018-11-07T13:34:00.754Z,23.00
2018-11-07T13:36:42.563Z,23.37
2018-11-07T13:39:24.815Z,24.33
2018-11-07T13:42:09.565Z,24.13
2018-11-07T13:44:52.119Z,24.00
2018-11-07T13:47:35.154Z,23.27
2018-11-07T13:50:16.934Z,22.17
2018-11-07T13:52:58.796Z,23.37
2018-11-07T13:55:40.799Z,23.67
2018-11-07T13:58:22.509Z,24.77
2018-11-07T14:01:04.058Z,25.50
2018-11-07T14:03:45.564Z,25.07
2018-11-07T14:06:27.377Z,25.40
2018-11-07T14:09:10.913Z,25.47
2018-11-07T14:11:52.658Z,25.23
2018-11-07T14:14:34.728Z,26.50
2018-11-07T14:17:16.176Z,26.47
2018-11-07T14:19:57.713Z,26.33
2018-11-07T14:22:40.677Z,28.87
2018-11-07T14:25:22.466Z,27.53
2018-11-07T14:28:04.826Z,27.27
2018-11-07T14:30:47.302Z,28.50
2018-11-07T14:33:29.375Z,29.03
2018-11-07T14:36:11.324Z,28.13
2018-11-07T14:38:53.115Z,29.80
2018-11-07T14:41:35.367Z,29.33
2018-11-07T14:44:16.837Z,29.23
2018-11-07T14:46:58.538Z,30.57
2018-11-07T14:49:40.448Z,31.00
2018-11-07T14:52:22.627Z,31.93
2018-11-07T14:55:05.074Z,31.37
2018-11-07T14:57:46.506Z,30.83
2018-11-07T15:00:28.461Z,31.93
2018-11-07T15:03:10.093Z,32.70
2018-11-07T15:05:51.708Z,31.83
2018-11-07T15:08:33.377Z,32.40
2018-11-07T15:11:15.007Z,32.57
2018-11-07T15:13:56.639Z,33.90
2018-11-07T15:16:39.829Z,33.47
2018-11-07T15:19:21.934Z,33.73
2018-11-07T15:22:03.876Z,33.57
2018-11-07T15:24:45.949Z,33.53
2018-11-07T15:27:27.512Z,34.13
2018-11-07T15:30:10.948Z,34.53
2018-11-07T15:32:52.497Z,34.43
2018-11-07T15:35:33.911Z,36.47
2018-11-07T15:38:15.767Z,36.13
2018-11-07T15:40:57.906Z,35.40
2018-11-07T15:43:39.772Z,37.43
2018-11-07T15:46:21.600Z,35.60
2018-11-07T15:49:03.146Z,35.70
2018-11-07T15:51:44.539Z,37.30
2018-11-07T15:54:26.684Z,35.80
2018-11-07T15:57:08.700Z,38.15
2018-11-07T15:59:50.557Z,38.30
2018-11-07T16:02:33.068Z,37.67
2018-11-07T16:05:15.483Z,38.80
2018-11-07T16:07:58.052Z,39.38
2018-11-07T16:10:39.469Z,37.77
2018-11-07T16:13:21.666Z,37.63
2018-11-07T16:16:05.521Z,36.63
2018-11-07T16:18:47.185Z,37.30
2018-11-07T16:21:29.268Z,36.13
2018-11-07T16:24:11.620Z,35.37
2018-11-07T16:26:53.568Z,35.43
2018-11-07T16:29:35.216Z,37.73
2018-11-07T16:32:17.079Z,38.00
2018-11-07T16:35:00.526Z,36.70
2018-11-07T16:37:42.827Z,38.00
2018-11-07T16:40:25.074Z,37.67
2018-11-07T16:43:07.438Z,38.13
2018-11-07T16:45:50.854Z,37.67
2018-11-07T16:48:33.385Z,37.58
2018-11-07T16:51:18.329Z,37.38
2018-11-07T16:54:01.013Z,36.83
2018-11-07T16:56:50.092Z,37.85
2018-11-07T16:59:32.355Z,37.78
2018-11-07T17:02:16.561Z,38.85
2018-11-07T17:05:02.847Z,39.53
2018-11-07T17:07:44.978Z,36.53
2018-11-07T17:10:27.156Z,39.15
2018-11-07T17:13:10.398Z,36.55
2018-11-07T17:15:52.553Z,38.95
2018-11-07T17:18:34.409Z,39.78
2018-11-07T17:21:16.117Z,39.23
2018-11-07T17:23:58.797Z,38.40
2018-11-07T17:26:41.030Z,39.95
2018-11-07T17:29:23.632Z,40.87
2018-11-07T17:32:07.127Z,38.67
2018-11-07T17:34:49.144Z,40.50
2018-11-07T17:37:30.856Z,37.95
2018-11-07T17:40:16.596Z,39.58
2018-11-07T17:42:58.668Z,37.38
2018-11-07T17:45:40.325Z,40.30
2018-11-07T17:48:22.382Z,38.05
2018-11-07T17:51:04.844Z,38.17
2018-11-07T17:53:46.670Z,37.15
2018-11-07T17:56:28.421Z,38.15
2018-11-07T17:59:11.301Z,39.80
2018-11-07T18:01:53.729Z,39.88
2018-11-07T18:04:35.603Z,39.85
2018-11-07T18:07:18.467Z,40.23
2018-11-07T18:10:00.663Z,39.23
2018-11-07T18:12:43.135Z,39.98
2018-11-07T18:15:26.072Z,42.00
2018-11-07T18:18:08.090Z,45.00
2018-11-07T18:20:50.462Z,44.85
2018-11-07T18:23:32.957Z,43.48
2018-11-07T18:26:14.740Z,41.37
2018-11-07T18:28:56.632Z,41.63
2018-11-07T18:31:38.714Z,43.87
2018-11-07T18:34:20.657Z,42.10
2018-11-07T18:37:03.184Z,43.17
2018-11-07T18:39:44.861Z,40.00
2018-11-07T18:42:26.571Z,43.70
2018-11-07T18:45:10.295Z,42.10
2018-11-07T18:47:52.119Z,43.23
2018-11-07T18:50:33.988Z,42.65
2018-11-07T18:53:16.854Z,41.90
2018-11-07T18:55:58.491Z,41.40
2018-11-07T18:58:40.435Z,44.00
2018-11-07T19:01:22.848Z,42.93
2018-11-07T19:04:05.030Z,43.20
2018-11-07T19:06:46.933Z,43.83
2018-11-07T19:09:29.199Z,44.63
2018-11-07T19:12:11.249Z,45.92
2018-11-07T19:14:53.294Z,45.92
2018-11-07T19:17:35.086Z,46.45
2018-11-07T19:20:18.267Z,44.33
2018-11-07T19:23:00.720Z,42.65
2018-11-07T19:25:43.678Z,42.58
2018-11-07T19:28:25.906Z,42.93
2018-11-07T19:31:08.162Z,42.38
2018-11-07T19:33:51.534Z,41.60
2018-11-07T19:36:33.853Z,43.35
2018-11-07T19:39:15.731Z,40.95
2018-11-07T19:41:57.821Z,42.35
2018-11-07T19:44:40.031Z,44.48
2018-11-07T19:47:22.229Z,43.25
2018-11-07T19:50:04.504Z,43.40
2018-11-07T19:52:47.788Z,44.13
2018-11-07T19:55:30.294Z,42.70
2018-11-07T19:58:12.534Z,44.03
2018-11-07T20:00:54.330Z,46.63
2018-11-07T20:03:36.633Z,44.85
2018-11-07T20:06:18.461Z,44.23
2018-11-07T20:09:00.659Z,43.75
2018-11-07T20:11:42.536Z,45.23
2018-11-07T20:14:24.224Z,46.15
2018-11-07T20:17:06.352Z,44.33
2018-11-07T20:19:49.000Z,46.90
2018-11-07T20:22:30.954Z,44.75
2018-11-07T20:25:14.057Z,47.03
2018-11-07T20:27:56.253Z,45.28
2018-11-07T20:30:37.955Z,47.45
2018-11-07T20:33:20.050Z,46.50
2018-11-07T20:36:02.221Z,48.52
2018-11-07T20:38:44.098Z,47.65
2018-11-07T20:41:25.908Z,47.58
2018-11-07T20:44:09.468Z,48.52
2018-11-07T20:46:51.268Z,47.85
2018-11-07T20:49:32.898Z,48.60
2018-11-07T20:52:14.901Z,51.58
2018-11-07T20:54:56.695Z,50.73
2018-11-07T20:57:38.928Z,48.15
2018-11-07T21:00:22.840Z,52.55
2018-11-07T21:03:04.515Z,47.90
2018-11-07T21:05:46.923Z,48.98
2018-11-07T21:08:28.747Z,49.18
2018-11-07T21:11:10.581Z,47.27
2018-11-07T21:13:53.672Z,47.93
2018-11-07T21:16:35.913Z,46.95
2018-11-07T21:19:18.318Z,50.35
2018-11-07T21:22:00.635Z,49.30
2018-11-07T21:24:42.478Z,45.58
2018-11-07T21:27:55.513Z,45.65
2018-11-07T21:30:38.143Z,48.05
2018-11-07T21:33:20.516Z,45.52
2018-11-07T21:36:02.986Z,50.75
2018-11-07T21:38:44.985Z,48.55
2018-11-07T21:41:27.304Z,48.35
2018-11-07T21:44:09.163Z,46.65
2018-11-07T21:46:50.997Z,47.62
2018-11-07T21:49:32.654Z,46.80
2018-11-07T21:52:14.686Z,48.68
2018-11-07T21:54:56.494Z,48.42
2018-11-07T21:57:38.905Z,48.50
2018-11-07T22:00:21.194Z,51.48
2018-11-07T22:03:03.823Z,48.63
2018-11-07T22:05:45.967Z,50.67
2018-11-07T22:08:28.497Z,51.75
2018-11-07T22:11:10.348Z,52.55
2018-11-07T22:13:52.590Z,52.55
2018-11-07T22:16:34.713Z,51.95
2018-11-07T22:19:16.114Z,53.25
2018-11-07T22:21:58.191Z,50.48
2018-11-07T22:24:39.992Z,49.85
2018-11-07T22:27:22.085Z,50.92
2018-11-07T22:30:04.352Z,50.15
2018-11-07T22:32:46.081Z,49.60
2018-11-07T22:35:28.061Z,48.45
2018-11-07T22:38:10.220Z,50.78
2018-11-07T22:40:52.356Z,50.43
2018-11-07T22:43:34.382Z,51.00
2018-11-07T22:46:16.490Z,51.55
2018-11-07T22:48:58.480Z,50.25
2018-11-07T22:51:40.581Z,51.85
2018-11-07T22:54:22.276Z,47.80
2018-11-07T22:57:04.651Z,50.80
2018-11-07T22:59:46.826Z,46.25
2018-11-07T23:02:28.722Z,47.98
2018-11-07T23:05:10.781Z,50.25
2018-11-07T23:07:53.123Z,49.00
2018-11-07T23:10:35.581Z,49.00
2018-11-07T23:13:17.575Z,48.50
2018-11-07T23:15:59.716Z,49.48
2018-11-07T23:18:41.488Z,50.17
2018-11-07T23:21:23.194Z,50.33
2018-11-07T23:24:05.940Z,48.95
2018-11-07T23:26:48.741Z,50.05
2018-11-07T23:29:30.309Z,50.45
2018-11-07T23:32:12.589Z,51.15
2018-11-07T23:34:54.391Z,49.08
2018-11-07T23:37:36.689Z,47.78
2018-11-07T23:40:19.239Z,49.05
2018-11-07T23:43:01.136Z,51.10
2018-11-07T23:45:43.109Z,49.33
2018-11-07T23:48:24.988Z,51.65
2018-11-07T23:51:07.208Z,51.58
2018-11-07T23:53:48.867Z,48.80
2018-11-07T23:56:30.832Z,44.53
2018-11-07T23:59:12.609Z,45.38
